Muckle Holm, United Kingdom
Current Conditions -  °F | °C
As of 1:20 PM on Tuesday 21 Oct 2014 (Local Time) from EGPM Reporting Station
Light Rain Light Rain  
Wind Chill: 37°   Ceiling: 1700
Heat Index: 46°   Visibility: 3mi
Dew Point: 45°   Wind: 31mph
Humidity: 93%   Direction: 310°NW
Pressure: 29"   Gusts: 43mph
Location:  60.58°N, 1.27°W
Report Text: EGPM 211220Z 31027G37KT 5000 -RA FEW006 SCT010 BKN017 08/07 Q0982 TEMPO 4000 RA BKN006
Loading
Personal Weather Stations






























Interactive Weather Map
Tropical Storm Tracking
New forecast layout! Learn more

10-Day Weather Forecast

Advertisements
Track Severe Weather on mobile